sensor_id;sensor_type;location;lat;lon;timestamp;pressure;altitude;pressure_sealevel;temperature;humidity
72438;BME280;60444;43.534;-5.674;2023-03-01T00:02:11;102609.09;;;8.13;72.68
72438;BME280;60444;43.534;-5.674;2023-03-01T00:04:37;102629.63;;;8.23;76.38
72438;BME280;60444;43.534;-5.674;2023-03-01T00:07:02;102615.34;;;8.15;81.00
72438;BME280;60444;43.534;-5.674;2023-03-01T00:09:28;102617.06;;;8.25;83.33
72438;BME280;60444;43.534;-5.674;2023-03-01T00:11:53;102610.84;;;8.17;75.48
72438;BME280;60444;43.534;-5.674;2023-03-01T00:14:19;102612.59;;;8.24;84.77
72438;BME280;60444;43.534;-5.674;2023-03-01T00:16:45;102596.50;;;8.14;79.47
72438;BME280;60444;43.534;-5.674;2023-03-01T00:19:16;102575.97;;;8.01;75.92
72438;BME280;60444;43.534;-5.674;2023-03-01T00:21:41;102573.22;;;8.08;81.47
72438;BME280;60444;43.534;-5.674;2023-03-01T00:24:07;102557.91;;;8.09;90.55
72438;BME280;60444;43.534;-5.674;2023-03-01T00:26:36;102573.97;;;8.21;88.73
72438;BME280;60444;43.534;-5.674;2023-03-01T00:29:04;102564.03;;;8.27;94.76
72438;BME280;60444;43.534;-5.674;2023-03-01T00:31:31;102557.69;;;8.31;99.38
72438;BME280;60444;43.534;-5.674;2023-03-01T00:33:59;102550.56;;;8.21;88.12
72438;BME280;60444;43.534;-5.674;2023-03-01T00:36:27;102550.66;;;8.15;77.16
72438;BME280;60444;43.534;-5.674;2023-03-01T00:38:54;102561.31;;;8.29;96.53
72438;BME280;60444;43.534;-5.674;2023-03-01T00:41:20;102550.56;;;8.21;91.16
72438;BME280;60444;43.534;-5.674;2023-03-01T00:43:49;102538.09;;;8.16;91.09
72438;BME280;60444;43.534;-5.674;2023-03-01T00:46:20;102535.41;;;8.13;84.29
72438;BME280;60444;43.534;-5.674;2023-03-01T00:48:46;102539.06;;;8.07;83.11
72438;BME280;60444;43.534;-5.674;2023-03-01T00:51:20;102557.81;;;8.18;94.59
72438;BME280;60444;43.534;-5.674;2023-03-01T00:53:50;102540.00;;;8.03;100.00
72438;BME280;60444;43.534;-5.674;2023-03-01T00:56:16;102560.63;;;8.10;83.25
72438;BME280;60444;43.534;-5.674;2023-03-01T00:58:42;102549.03;;;8.01;91.33
72438;BME280;60444;43.534;-5.674;2023-03-01T01:01:20;102577.72;;;8.06;78.94
72438;BME280;60444;43.534;-5.674;2023-03-01T01:03:48;102575.03;;;8.03;85.59
72438;BME280;60444;43.534;-5.674;2023-03-01T01:06:20;102558.94;;;7.97;82.90
72438;BME280;60444;43.534;-5.674;2023-03-01T01:08:46;102566.16;;;7.95;78.65
72438;BME280;60444;43.534;-5.674;2023-03-01T01:11:12;102548.28;;;7.88;82.27
72438;BME280;60444;43.534;-5.674;2023-03-01T01:13:40;102554.53;;;7.90;85.20
72438;BME280;60444;43.534;-5.674;2023-03-01T01:16:06;102557.22;;;7.90;80.81
72438;BME280;60444;43.534;-5.674;2023-03-01T01:18:31;102518.78;;;7.73;77.58
72438;BME280;60444;43.534;-5.674;2023-03-01T01:20:57;102557.19;;;7.93;77.61
72438;BME280;60444;43.534;-5.674;2023-03-01T01:23:23;102544.66;;;7.89;75.72
72438;BME280;60444;43.534;-5.674;2023-03-01T01:25:48;102514.31;;;7.69;76.42
72438;BME280;60444;43.534;-5.674;2023-03-01T01:28:15;102528.66;;;7.74;76.10
72438;BME280;60444;43.534;-5.674;2023-03-01T01:30:42;102545.59;;;7.87;80.31
72438;BME280;60444;43.534;-5.674;2023-03-01T01:33:07;102533.09;;;7.78;93.33
72438;BME280;60444;43.534;-5.674;2023-03-01T01:35:33;102517.03;;;7.68;84.02
72438;BME280;60444;43.534;-5.674;2023-03-01T01:37:58;102523.31;;;7.70;85.14
72438;BME280;60444;43.534;-5.674;2023-03-01T01:40:24;102529.59;;;7.70;83.98
72438;BME280;60444;43.534;-5.674;2023-03-01T01:42:49;102520.56;;;7.73;91.88
72438;BME280;60444;43.534;-5.674;2023-03-01T01:45:26;102535.81;;;7.77;96.84
72438;BME280;60444;43.534;-5.674;2023-03-01T01:47:54;102520.66;;;7.64;89.49
72438;BME280;60444;43.534;-5.674;2023-03-01T01:50:21;102528.84;;;7.56;84.81
72438;BME280;60444;43.534;-5.674;2023-03-01T01:52:48;102506.56;;;7.38;83.10
72438;BME280;60444;43.534;-5.674;2023-03-01T01:55:18;102501.38;;;7.16;83.25
72438;BME280;60444;43.534;-5.674;2023-03-01T01:57:52;102518.44;;;7.14;90.81
72438;BME280;60444;43.534;-5.674;2023-03-01T02:00:21;102520.22;;;7.16;96.54
72438;BME280;60444;43.534;-5.674;2023-03-01T02:03:11;102493.31;;;7.13;100.00
72438;BME280;60444;43.534;-5.674;2023-03-01T02:05:53;102510.38;;;7.12;100.00
72438;BME280;60444;43.534;-5.674;2023-03-01T02:08:21;102465.69;;;6.95;100.00
72438;BME280;60444;43.534;-5.674;2023-03-01T02:10:49;102490.78;;;6.92;100.00
72438;BME280;60444;43.534;-5.674;2023-03-01T02:13:15;102471.91;;;6.97;100.00
72438;BME280;60444;43.534;-5.674;2023-03-01T02:15:41;102486.16;;;7.11;100.00
72438;BME280;60444;43.534;-5.674;2023-03-01T02:18:10;102473.59;;;7.10;100.00
72438;BME280;60444;43.534;-5.674;2023-03-01T02:23:47;102446.00;;;6.91;100.00
72438;BME280;60444;43.534;-5.674;2023-03-01T02:26:23;102458.47;;;7.00;100.00
72438;BME280;60444;43.534;-5.674;2023-03-01T02:28:51;102452.19;;;6.99;100.00
72438;BME280;60444;43.534;-5.674;2023-03-01T02:31:19;102440.50;;;7.02;100.00
72438;BME280;60444;43.534;-5.674;2023-03-01T02:34:04;102431.56;;;6.97;100.00
72438;BME280;60444;43.534;-5.674;2023-03-01T02:37:04;102432.47;;;6.97;100.00
72438;BME280;60444;43.534;-5.674;2023-03-01T02:39:59;102422.56;;;7.01;100.00
72438;BME280;60444;43.534;-5.674;2023-03-01T02:42:35;102410.97;;;6.96;100.00
72438;BME280;60444;43.534;-5.674;2023-03-01T02:45:02;102414.50;;;7.04;100.00
72438;BME280;60444;43.534;-5.674;2023-03-01T02:47:28;102403.78;;;6.98;100.00
72438;BME280;60444;43.534;-5.674;2023-03-01T02:49:54;102383.16;;;6.97;100.00
72438;BME280;60444;43.534;-5.674;2023-03-01T02:55:34;102384.13;;;6.90;100.00
72438;BME280;60444;43.534;-5.674;2023-03-01T02:58:02;102384.22;;;6.82;100.00
72438;BME280;60444;43.534;-5.674;2023-03-01T03:00:39;102401.13;;;6.93;100.00
72438;BME280;60444;43.534;-5.674;2023-03-01T03:03:13;102373.50;;;6.75;100.00
72438;BME280;60444;43.534;-5.674;2023-03-01T03:05:39;102401.19;;;6.87;100.00
72438;BME280;60444;43.534;-5.674;2023-03-01T03:08:05;102375.31;;;6.73;100.00
72438;BME280;60444;43.534;-5.674;2023-03-01T03:10:35;102392.28;;;6.82;100.00
72438;BME280;60444;43.534;-5.674;2023-03-01T03:13:03;102391.31;;;6.86;100.00
72438;BME280;60444;43.534;-5.674;2023-03-01T03:15:30;102386.03;;;6.76;100.00
72438;BME280;60444;43.534;-5.674;2023-03-01T03:17:57;102363.69;;;6.66;100.00
72438;BME280;60444;43.534;-5.674;2023-03-01T03:20:25;102385.13;;;6.80;100.00
72438;BME280;60444;43.534;-5.674;2023-03-01T03:22:53;102361.88;;;6.68;100.00
72438;BME280;60444;43.534;-5.674;2023-03-01T03:25:20;102374.41;;;6.72;100.00
72438;BME280;60444;43.534;-5.674;2023-03-01T03:27:47;102384.16;;;6.87;100.00
72438;BME280;60444;43.534;-5.674;2023-03-01T03:30:16;102368.09;;;6.78;100.00
72438;BME280;60444;43.534;-5.674;2023-03-01T03:32:44;102359.16;;;6.76;100.00
72438;BME280;60444;43.534;-5.674;2023-03-01T03:37:45;102320.75;;;6.62;100.00
72438;BME280;60444;43.534;-5.674;2023-03-01T03:42:59;102333.31;;;6.60;100.00
72438;BME280;60444;43.534;-5.674;2023-03-01T03:45:25;102348.38;;;6.77;100.00
72438;BME280;60444;43.534;-5.674;2023-03-01T03:47:50;102319.81;;;6.63;100.00
72438;BME280;60444;43.534;-5.674;2023-03-01T03:50:17;102350.19;;;6.74;100.00
72438;BME280;60444;43.534;-5.674;2023-03-01T03:52:43;102343.06;;;6.68;100.00
72438;BME280;60444;43.534;-5.674;2023-03-01T03:55:11;102341.28;;;6.69;100.00
72438;BME280;60444;43.534;-5.674;2023-03-01T03:57:41;102323.31;;;6.74;100.00
72438;BME280;60444;43.534;-5.674;2023-03-01T04:00:09;102307.25;;;6.68;100.00
72438;BME280;60444;43.534;-5.674;2023-03-01T04:02:41;102325.16;;;6.69;100.00
72438;BME280;60444;43.534;-5.674;2023-03-01T04:05:09;102326.91;;;6.70;100.00
72438;BME280;60444;43.534;-5.674;2023-03-01T04:07:36;102323.44;;;6.62;100.00
72438;BME280;60444;43.534;-5.674;2023-03-01T04:10:04;102334.13;;;6.68;100.00
72438;BME280;60444;43.534;-5.674;2023-03-01T04:12:29;102321.66;;;6.61;100.00
72438;BME280;60444;43.534;-5.674;2023-03-01T04:14:55;102326.13;;;6.62;100.00
72438;BME280;60444;43.534;-5.674;2023-03-01T04:17:20;102304.66;;;6.54;100.00
72438;BME280;60444;43.534;-5.674;2023-03-01T04:19:46;102321.53;;;6.70;100.00
72438;BME280;60444;43.534;-5.674;2023-03-01T04:22:14;102315.34;;;6.63;100.00
72438;BME280;60444;43.534;-5.674;2023-03-01T04:24:42;102314.38;;;6.70;100.00
72438;BME280;60444;43.534;-5.674;2023-03-01T04:27:08;102291.03;;;6.75;100.00
72438;BME280;60444;43.534;-5.674;2023-03-01T04:29:34;102309.75;;;6.87;100.00
72438;BME280;60444;43.534;-5.674;2023-03-01T04:31:59;102282.09;;;6.75;100.00
72438;BME280;60444;43.534;-5.674;2023-03-01T04:34:25;102272.25;;;6.72;100.00
72438;BME280;60444;43.534;-5.674;2023-03-01T04:36:52;102269.59;;;6.69;100.00
72438;BME280;60444;43.534;-5.674;2023-03-01T04:39:18;102283.75;;;6.86;100.00
72438;BME280;60444;43.534;-5.674;2023-03-01T04:41:43;102261.47;;;6.77;100.00
72438;BME280;60444;43.534;-5.674;2023-03-01T04:44:09;102277.50;;;6.83;100.00
72438;BME280;60444;43.534;-5.674;2023-03-01T04:46:35;102292.72;;;6.87;100.00
72438;BME280;60444;43.534;-5.674;2023-03-01T04:49:02;102255.25;;;6.69;100.00
72438;BME280;60444;43.534;-5.674;2023-03-01T04:51:28;102273.91;;;6.85;100.00
72438;BME280;60444;43.534;-5.674;2023-03-01T04:53:53;102271.25;;;6.82;100.00
72438;BME280;60444;43.534;-5.674;2023-03-01T04:56:19;102268.63;;;6.76;100.00
72438;BME280;60444;43.534;-5.674;2023-03-01T04:58:45;102265.09;;;6.71;100.00
72438;BME280;60444;43.534;-5.674;2023-03-01T05:01:13;102267.88;;;6.59;100.00
72438;BME280;60444;43.534;-5.674;2023-03-01T05:03:47;102275.00;;;6.65;100.00
72438;BME280;60444;43.534;-5.674;2023-03-01T05:06:13;102255.38;;;6.57;100.00
72438;BME280;60444;43.534;-5.674;2023-03-01T05:08:40;102262.47;;;6.65;100.00
72438;BME280;60444;43.534;-5.674;2023-03-01T05:11:06;102242.91;;;6.47;100.00
72438;BME280;60444;43.534;-5.674;2023-03-01T05:13:34;102252.59;;;6.66;100.00
72438;BME280;60444;43.534;-5.674;2023-03-01T05:16:01;102255.25;;;6.69;100.00
72438;BME280;60444;43.534;-5.674;2023-03-01T05:18:28;102224.88;;;6.61;100.00
72438;BME280;60444;43.534;-5.674;2023-03-01T05:21:01;102255.25;;;6.69;100.00
72438;BME280;60444;43.534;-5.674;2023-03-01T05:23:29;102212.38;;;6.54;100.00
72438;BME280;60444;43.534;-5.674;2023-03-01T05:25:58;102238.31;;;6.62;100.00
72438;BME280;60444;43.534;-5.674;2023-03-01T05:28:25;102264.06;;;6.83;100.00
72438;BME280;60444;43.534;-5.674;2023-03-01T05:30:51;102223.09;;;6.60;100.00
72438;BME280;60444;43.534;-5.674;2023-03-01T05:33:17;102248.84;;;6.82;100.00
72438;BME280;60444;43.534;-5.674;2023-03-01T05:35:43;102255.97;;;6.84;100.00
72438;BME280;60444;43.534;-5.674;2023-03-01T05:38:11;102252.31;;;6.90;100.00
72438;BME280;60444;43.534;-5.674;2023-03-01T05:40:40;102215.00;;;6.61;100.00
72438;BME280;60444;43.534;-5.674;2023-03-01T05:43:06;102221.22;;;6.65;100.00
72438;BME280;60444;43.534;-5.674;2023-03-01T05:45:32;102225.59;;;6.76;100.00
72438;BME280;60444;43.534;-5.674;2023-03-01T05:47:58;102215.63;;;6.87;100.00
72438;BME280;60444;43.534;-5.674;2023-03-01T05:50:26;102205.03;;;6.72;100.00
72438;BME280;60444;43.534;-5.674;2023-03-01T05:55:22;102203.25;;;6.71;100.00
72438;BME280;60444;43.534;-5.674;2023-03-01T05:57:48;102185.44;;;6.60;100.00
72438;BME280;60444;43.534;-5.674;2023-03-01T06:00:19;102182.72;;;6.64;100.00
72438;BME280;60444;43.534;-5.674;2023-03-01T06:02:47;102189.88;;;6.65;100.00
72438;BME280;60444;43.534;-5.674;2023-03-01T06:05:14;102194.44;;;6.57;100.00
72438;BME280;60444;43.534;-5.674;2023-03-01T06:07:40;102197.00;;;6.69;100.00
72438;BME280;60444;43.534;-5.674;2023-03-01T06:10:07;102202.34;;;6.72;100.00
72438;BME280;60444;43.534;-5.674;2023-03-01T06:12:34;102197.09;;;6.60;100.00
72438;BME280;60444;43.534;-5.674;2023-03-01T06:15:00;102166.81;;;6.46;100.00
72438;BME280;60444;43.534;-5.674;2023-03-01T06:17:29;102185.44;;;6.60;100.00
72438;BME280;60444;43.534;-5.674;2023-03-01T06:19:55;102191.72;;;6.62;100.00
72438;BME280;60444;43.534;-5.674;2023-03-01T06:22:21;102183.84;;;6.42;100.00
72438;BME280;60444;43.534;-5.674;2023-03-01T06:24:47;102183.91;;;6.36;100.00
72438;BME280;60444;43.534;-5.674;2023-03-01T06:27:13;102178.31;;;6.56;100.00
72438;BME280;60444;43.534;-5.674;2023-03-01T06:29:38;102198.81;;;6.67;100.00
72438;BME280;60444;43.534;-5.674;2023-03-01T06:32:04;102192.63;;;6.61;100.00
72438;BME280;60444;43.534;-5.674;2023-03-01T06:34:33;102187.28;;;6.56;100.00
72438;BME280;60444;43.534;-5.674;2023-03-01T06:36:59;102159.56;;;6.53;100.00
72438;BME280;60444;43.534;-5.674;2023-03-01T06:39:24;102161.34;;;6.51;100.00
72438;BME280;60444;43.534;-5.674;2023-03-01T06:41:50;102191.84;;;6.50;100.00
72438;BME280;60444;43.534;-5.674;2023-03-01T06:44:15;102189.94;;;6.59;100.00
72438;BME280;60444;43.534;-5.674;2023-03-01T06:46:41;102172.06;;;6.57;100.00
72438;BME280;60444;43.534;-5.674;2023-03-01T06:49:06;102203.38;;;6.58;100.00
72438;BME280;60444;43.534;-5.674;2023-03-01T06:51:36;102180.13;;;6.57;100.00
72438;BME280;60444;43.534;-5.674;2023-03-01T06:54:05;102178.22;;;6.65;100.00
72438;BME280;60444;43.534;-5.674;2023-03-01T06:56:32;102201.59;;;6.60;100.00
72438;BME280;60444;43.534;-5.674;2023-03-01T06:58:58;102186.38;;;6.59;100.00
72438;BME280;60444;43.534;-5.674;2023-03-01T07:01:23;102178.31;;;6.59;100.00
72438;BME280;60444;43.534;-5.674;2023-03-01T07:03:49;102188.13;;;6.61;100.00
72438;BME280;60444;43.534;-5.674;2023-03-01T07:06:14;102197.00;;;6.69;100.00
72438;BME280;60444;43.534;-5.674;2023-03-01T07:08:40;102210.31;;;6.80;100.00
72438;BME280;60444;43.534;-5.674;2023-03-01T07:11:05;102187.22;;;6.62;100.00
72438;BME280;60444;43.534;-5.674;2023-03-01T07:13:31;102197.06;;;6.63;100.00
72438;BME280;60444;43.534;-5.674;2023-03-01T07:15:57;102200.50;;;6.76;100.00
72438;BME280;60444;43.534;-5.674;2023-03-01T07:18:23;102204.94;;;6.81;100.00
72438;BME280;60444;43.534;-5.674;2023-03-01T07:20:48;102196.06;;;6.75;100.00
72438;BME280;60444;43.534;-5.674;2023-03-01T07:23:14;102221.88;;;6.86;100.00
72438;BME280;60444;43.534;-5.674;2023-03-01T07:25:40;102198.63;;;6.84;100.00
72438;BME280;60444;43.534;-5.674;2023-03-01T07:28:06;102193.28;;;6.81;100.00
72438;BME280;60444;43.534;-5.674;2023-03-01T07:30:31;102211.19;;;6.82;100.00
72438;BME280;60444;43.534;-5.674;2023-03-01T07:32:57;102206.75;;;6.78;100.00
72438;BME280;60444;43.534;-5.674;2023-03-01T07:35:25;102178.13;;;6.72;100.00
72438;BME280;60444;43.534;-5.674;2023-03-01T07:37:50;102180.88;;;6.69;100.00
72438;BME280;60444;43.534;-5.674;2023-03-01T07:40:16;102170.13;;;6.66;100.00
72438;BME280;60444;43.534;-5.674;2023-03-01T07:42:42;102186.16;;;6.77;100.00
72438;BME280;60444;43.534;-5.674;2023-03-01T07:45:08;102169.28;;;6.63;100.00
72438;BME280;60444;43.534;-5.674;2023-03-01T07:47:35;102179.25;;;6.55;100.00
72438;BME280;60444;43.534;-5.674;2023-03-01T07:50:00;102178.34;;;6.54;100.00
72438;BME280;60444;43.534;-5.674;2023-03-01T07:52:26;102163.91;;;6.63;100.00
72438;BME280;60444;43.534;-5.674;2023-03-01T07:54:56;102180.88;;;6.66;100.00
72438;BME280;60444;43.534;-5.674;2023-03-01T07:57:22;102164.81;;;6.62;100.00
72438;BME280;60444;43.534;-5.674;2023-03-01T07:59:47;102144.25;;;6.58;100.00
72438;BME280;60444;43.534;-5.674;2023-03-01T08:02:13;102163.91;;;6.66;100.00
72438;BME280;60444;43.534;-5.674;2023-03-01T08:04:40;102151.53;;;6.47;100.00
72438;BME280;60444;43.534;-5.674;2023-03-01T08:07:06;102146.16;;;6.50;100.00
72438;BME280;60444;43.534;-5.674;2023-03-01T08:09:34;102172.84;;;6.65;100.00
72438;BME280;60444;43.534;-5.674;2023-03-01T08:12:00;102152.38;;;6.55;100.00
72438;BME280;60444;43.534;-5.674;2023-03-01T08:14:25;102154.94;;;6.64;100.00
72438;BME280;60444;43.534;-5.674;2023-03-01T08:16:51;102148.75;;;6.56;100.00
72438;BME280;60444;43.534;-5.674;2023-03-01T08:19:17;102129.13;;;6.49;100.00
72438;BME280;60444;43.534;-5.674;2023-03-01T08:21:42;102158.53;;;6.63;100.00
72438;BME280;60444;43.534;-5.674;2023-03-01T08:24:08;102169.28;;;6.64;100.00
72438;BME280;60444;43.534;-5.674;2023-03-01T08:26:36;102155.09;;;6.52;100.00
72438;BME280;60444;43.534;-5.674;2023-03-01T08:29:02;102165.66;;;6.67;100.00
72438;BME280;60444;43.534;-5.674;2023-03-01T08:31:33;102159.47;;;6.60;100.00
72438;BME280;60444;43.534;-5.674;2023-03-01T08:34:03;102149.66;;;6.56;100.00
72438;BME280;60444;43.534;-5.674;2023-03-01T08:36:41;102132.69;;;6.51;100.00
72438;BME280;60444;43.534;-5.674;2023-03-01T08:39:09;102126.38;;;6.55;100.00
72438;BME280;60444;43.534;-5.674;2023-03-01T08:41:34;102151.53;;;6.47;100.00
72438;BME280;60444;43.534;-5.674;2023-03-01T08:44:00;102148.69;;;6.62;100.00
72438;BME280;60444;43.534;-5.674;2023-03-01T08:46:31;102145.09;;;6.63;100.00
72438;BME280;60444;43.534;-5.674;2023-03-01T08:48:57;102144.16;;;6.67;100.00
72438;BME280;60444;43.534;-5.674;2023-03-01T08:51:23;102142.50;;;6.57;100.00
72438;BME280;60444;43.534;-5.674;2023-03-01T08:53:49;102123.81;;;6.43;100.00
72438;BME280;60444;43.534;-5.674;2023-03-01T08:56:16;102149.63;;;6.58;100.00
72438;BME280;60444;43.534;-5.674;2023-03-01T08:58:48;102140.66;;;6.60;100.00
72438;BME280;60444;43.534;-5.674;2023-03-01T09:01:16;102132.81;;;6.39;100.00
72438;BME280;60444;43.534;-5.674;2023-03-01T09:03:45;102146.19;;;6.45;100.00
72438;BME280;60444;43.534;-5.674;2023-03-01T09:06:11;102125.75;;;6.29;100.00
72438;BME280;60444;43.534;-5.674;2023-03-01T09:08:38;102124.00;;;6.25;100.00
72438;BME280;60444;43.534;-5.674;2023-03-01T09:11:06;102109.84;;;6.09;100.00
72438;BME280;60444;43.534;-5.674;2023-03-01T09:13:32;102139.19;;;6.29;100.00
72438;BME280;60444;43.534;-5.674;2023-03-01T09:15:58;102138.38;;;6.22;100.00
72438;BME280;60444;43.534;-5.674;2023-03-01T09:18:24;102130.50;;;6.01;100.00
72438;BME280;60444;43.534;-5.674;2023-03-01T09:20:49;102114.53;;;5.89;100.00
72438;BME280;60444;43.534;-5.674;2023-03-01T09:23:15;102149.44;;;5.82;100.00
72438;BME280;60444;43.534;-5.674;2023-03-01T09:25:40;102141.53;;;5.68;100.00
72438;BME280;60444;43.534;-5.674;2023-03-01T09:28:06;102144.13;;;5.85;100.00
72438;BME280;60444;43.534;-5.674;2023-03-01T09:30:32;102123.63;;;5.67;100.00
72438;BME280;60444;43.534;-5.674;2023-03-01T09:32:57;102129.78;;;5.84;100.00
72438;BME280;60444;43.534;-5.674;2023-03-01T09:35:23;102126.41;;;5.55;100.00
72438;BME280;60444;43.534;-5.674;2023-03-01T09:37:49;102144.13;;;5.79;100.00
72438;BME280;60444;43.534;-5.674;2023-03-01T09:40:26;102120.03;;;5.71;100.00
72438;BME280;60444;43.534;-5.674;2023-03-01T09:43:01;102131.56;;;5.84;100.00
72438;BME280;60444;43.534;-5.674;2023-03-01T09:45:35;102107.50;;;5.67;100.00
72438;BME280;60444;43.534;-5.674;2023-03-01T09:48:03;102134.25;;;5.88;100.00
72438;BME280;60444;43.534;-5.674;2023-03-01T09:50:40;102117.16;;;5.97;100.00
72438;BME280;60444;43.534;-5.674;2023-03-01T09:53:15;102105.53;;;5.93;100.00
72438;BME280;60444;43.534;-5.674;2023-03-01T09:55:59;102099.28;;;5.93;100.00
72438;BME280;60444;43.534;-5.674;2023-03-01T10:00:57;102100.09;;;6.02;100.00
72438;BME280;60444;43.534;-5.674;2023-03-01T10:03:43;102112.34;;;6.27;100.00
72438;BME280;60444;43.534;-5.674;2023-03-01T10:06:15;102116.78;;;6.33;100.00
72438;BME280;60444;43.534;-5.674;2023-03-01T10:09:16;102123.06;;;6.30;100.00
72438;BME280;60444;43.534;-5.674;2023-03-01T10:11:39;102086.31;;;6.32;100.00
72438;BME280;60444;43.534;-5.674;2023-03-01T10:19:45;102107.66;;;6.48;100.00
72438;BME280;60444;43.534;-5.674;2023-03-01T10:22:24;102117.47;;;6.52;100.00
72438;BME280;60444;43.534;-5.674;2023-03-01T10:24:54;102117.31;;;6.64;100.00
72438;BME280;60444;43.534;-5.674;2023-03-01T10:27:59;102102.06;;;6.66;100.00
72438;BME280;60444;43.534;-5.674;2023-03-01T10:30:37;102105.41;;;6.83;100.00
72438;BME280;60444;43.534;-5.674;2023-03-01T10:33:15;102105.47;;;6.80;100.00
72438;BME280;60444;43.534;-5.674;2023-03-01T10:35:42;102092.78;;;6.88;100.00
72438;BME280;60444;43.534;-5.674;2023-03-01T10:38:10;102081.91;;;6.98;100.00
72438;BME280;60444;43.534;-5.674;2023-03-01T10:40:49;102054.16;;;6.95;100.00
72438;BME280;60444;43.534;-5.674;2023-03-01T10:43:21;102065.63;;;7.07;100.00
72438;BME280;60444;43.534;-5.674;2023-03-01T10:45:55;102069.13;;;7.14;100.00
72438;BME280;60444;43.534;-5.674;2023-03-01T10:48:26;102044.97;;;7.11;100.00
72438;BME280;60444;43.534;-5.674;2023-03-01T10:56:12;102067.16;;;7.25;100.00
72438;BME280;60444;43.534;-5.674;2023-03-01T10:58:57;102060.69;;;7.35;100.00
72438;BME280;60444;43.534;-5.674;2023-03-01T11:04:12;102088.63;;;7.28;100.00
72438;BME280;60444;43.534;-5.674;2023-03-01T11:06:39;102079.63;;;7.30;100.00
72438;BME280;60444;43.534;-5.674;2023-03-01T11:09:22;102070.75;;;7.25;100.00
72438;BME280;60444;43.534;-5.674;2023-03-01T11:11:55;102056.59;;;7.13;100.00
72438;BME280;60444;43.534;-5.674;2023-03-01T11:14:26;102075.44;;;7.10;100.00
72438;BME280;60444;43.534;-5.674;2023-03-01T11:17:01;102065.69;;;7.03;100.00
72438;BME280;60444;43.534;-5.674;2023-03-01T11:19:27;102039.81;;;6.94;100.00
72438;BME280;60444;43.534;-5.674;2023-03-01T11:24:19;102060.88;;;6.64;100.00
72438;BME280;60444;43.534;-5.674;2023-03-01T11:26:50;102038.69;;;6.45;100.00
72438;BME280;60444;43.534;-5.674;2023-03-01T11:29:30;102076.06;;;6.65;100.00
72438;BME280;60444;43.534;-5.674;2023-03-01T11:32:01;102058.25;;;6.58;100.00
72438;BME280;60444;43.534;-5.674;2023-03-01T11:37:16;102054.41;;;6.78;100.00
72438;BME280;60444;43.534;-5.674;2023-03-01T11:44:05;102058.00;;;6.76;100.00
72438;BME280;60444;43.534;-5.674;2023-03-01T11:54:27;102044.22;;;7.00;100.00
72438;BME280;60444;43.534;-5.674;2023-03-01T11:57:35;102062.31;;;6.89;100.00
72438;BME280;60444;43.534;-5.674;2023-03-01T12:03:08;102057.56;;;7.06;100.00
72438;BME280;60444;43.534;-5.674;2023-03-01T12:11:41;102049.06;;;7.33;100.00
72438;BME280;60444;43.534;-5.674;2023-03-01T12:24:41;102044.06;;;7.65;100.00
72438;BME280;60444;43.534;-5.674;2023-03-01T12:30:06;102054.63;;;7.77;100.00
72438;BME280;60444;43.534;-5.674;2023-03-01T12:38:41;102048.13;;;7.87;100.00
72438;BME280;60444;43.534;-5.674;2023-03-01T12:46:52;102032.72;;;7.95;100.00
72438;BME280;60444;43.534;-5.674;2023-03-01T12:49:43;102022.78;;;7.99;100.00
72438;BME280;60444;43.534;-5.674;2023-03-01T12:54:51;102034.19;;;8.13;100.00
72438;BME280;60444;43.534;-5.674;2023-03-01T12:57:43;102033.13;;;8.20;100.00
72438;BME280;60444;43.534;-5.674;2023-03-01T13:08:05;102026.31;;;8.48;100.00
72438;BME280;60444;43.534;-5.674;2023-03-01T13:13:11;102024.47;;;8.50;100.00
72438;BME280;60444;43.534;-5.674;2023-03-01T13:15:39;102025.09;;;8.63;100.00
72438;BME280;60444;43.534;-5.674;2023-03-01T13:23:13;102024.28;;;8.58;100.00
72438;BME280;60444;43.534;-5.674;2023-03-01T13:26:13;101995.66;;;8.54;100.00
72438;BME280;60444;43.534;-5.674;2023-03-01T13:33:45;102019.50;;;8.70;100.00
72438;BME280;60444;43.534;-5.674;2023-03-01T13:46:52;102008.09;;;8.58;100.00
72438;BME280;60444;43.534;-5.674;2023-03-01T13:49:21;101998.41;;;8.49;100.00
72438;BME280;60444;43.534;-5.674;2023-03-01T13:51:48;101994.13;;;8.41;100.00
72438;BME280;60444;43.534;-5.674;2023-03-01T13:54:25;102008.31;;;8.49;100.00
72438;BME280;60444;43.534;-5.674;2023-03-01T13:56:51;102001.03;;;8.54;100.00
72438;BME280;60444;43.534;-5.674;2023-03-01T13:59:20;102001.88;;;8.56;100.00
72438;BME280;60444;43.534;-5.674;2023-03-01T14:01:57;101981.63;;;8.36;100.00
72438;BME280;60444;43.534;-5.674;2023-03-01T14:04:26;101993.16;;;8.45;100.00
72438;BME280;60444;43.534;-5.674;2023-03-01T14:07:11;102000.25;;;8.47;100.00
72438;BME280;60444;43.534;-5.674;2023-03-01T14:09:41;101990.44;;;8.43;100.00
72438;BME280;60444;43.534;-5.674;2023-03-01T14:12:44;101999.31;;;8.50;100.00
72438;BME280;60444;43.534;-5.674;2023-03-01T14:15:24;101986.94;;;8.39;100.00
72438;BME280;60444;43.534;-5.674;2023-03-01T14:18:03;102001.97;;;8.51;100.00
72438;BME280;60444;43.534;-5.674;2023-03-01T14:20:36;101985.97;;;8.44;100.00
72438;BME280;60444;43.534;-5.674;2023-03-01T14:23:13;102000.06;;;8.56;100.00
72438;BME280;60444;43.534;-5.674;2023-03-01T14:25:56;101996.28;;;8.65;100.00
72438;BME280;60444;43.534;-5.674;2023-03-01T14:28:28;102006.06;;;8.69;100.00
72438;BME280;60444;43.534;-5.674;2023-03-01T14:30:59;102004.84;;;8.83;100.00
72438;BME280;60444;43.534;-5.674;2023-03-01T14:33:34;102003.91;;;8.86;100.00
72438;BME280;60444;43.534;-5.674;2023-03-01T14:36:09;102005.59;;;8.90;100.00
72438;BME280;60444;43.534;-5.674;2023-03-01T14:41:06;102003.47;;;9.04;100.00
72438;BME280;60444;43.534;-5.674;2023-03-01T14:43:33;101997.22;;;9.02;100.00
72438;BME280;60444;43.534;-5.674;2023-03-01T14:45:59;101991.69;;;9.06;100.00
72438;BME280;60444;43.534;-5.674;2023-03-01T14:48:27;101964.25;;;8.89;100.00
72438;BME280;60444;43.534;-5.674;2023-03-01T14:50:53;101974.72;;;9.01;100.00